sensor_id;sensor_type;location;lat;lon;timestamp;temperature;humidity
2851;DHT22;1433;49.976;8.342;2023-03-31T00:00:57;11.00;99.90
2851;DHT22;1433;49.976;8.342;2023-03-31T00:03:25;10.70;99.90
2851;DHT22;1433;49.976;8.342;2023-03-31T00:05:56;10.60;99.90
2851;DHT22;1433;49.976;8.342;2023-03-31T00:08:24;10.50;99.90
2851;DHT22;1433;49.976;8.342;2023-03-31T00:10:50;10.40;99.90
2851;DHT22;1433;49.976;8.342;2023-03-31T00:13:16;10.50;99.90
2851;DHT22;1433;49.976;8.342;2023-03-31T00:15:42;10.40;99.90
2851;DHT22;1433;49.976;8.342;2023-03-31T00:18:09;10.40;99.90
2851;DHT22;1433;49.976;8.342;2023-03-31T00:20:35;10.40;99.90
2851;DHT22;1433;49.976;8.342;2023-03-31T00:23:04;10.40;99.90
2851;DHT22;1433;49.976;8.342;2023-03-31T00:25:32;10.40;99.90
2851;DHT22;1433;49.976;8.342;2023-03-31T00:27:58;10.40;99.90
2851;DHT22;1433;49.976;8.342;2023-03-31T00:30:25;10.40;99.90
2851;DHT22;1433;49.976;8.342;2023-03-31T00:32:51;10.50;99.90
2851;DHT22;1433;49.976;8.342;2023-03-31T00:35:19;10.50;99.90
2851;DHT22;1433;49.976;8.342;2023-03-31T00:37:45;10.60;99.90
2851;DHT22;1433;49.976;8.342;2023-03-31T00:40:12;10.60;99.90
2851;DHT22;1433;49.976;8.342;2023-03-31T00:42:42;10.70;99.90
2851;DHT22;1433;49.976;8.342;2023-03-31T00:47:55;10.70;99.90
2851;DHT22;1433;49.976;8.342;2023-03-31T00:50:24;10.80;99.90
2851;DHT22;1433;49.976;8.342;2023-03-31T00:52:56;10.80;99.90
2851;DHT22;1433;49.976;8.342;2023-03-31T00:55:36;10.80;99.90
2851;DHT22;1433;49.976;8.342;2023-03-31T00:58:05;10.80;99.90
2851;DHT22;1433;49.976;8.342;2023-03-31T01:00:32;10.70;99.90
2851;DHT22;1433;49.976;8.342;2023-03-31T01:03:01;10.70;99.90
2851;DHT22;1433;49.976;8.342;2023-03-31T01:05:32;10.70;99.90
2851;DHT22;1433;49.976;8.342;2023-03-31T01:07:59;10.60;99.90
2851;DHT22;1433;49.976;8.342;2023-03-31T01:10:28;10.60;99.90
2851;DHT22;1433;49.976;8.342;2023-03-31T01:12:56;10.60;99.90
2851;DHT22;1433;49.976;8.342;2023-03-31T01:15:22;10.60;99.90
2851;DHT22;1433;49.976;8.342;2023-03-31T01:17:51;10.60;99.90
2851;DHT22;1433;49.976;8.342;2023-03-31T01:23:30;10.50;99.90
2851;DHT22;1433;49.976;8.342;2023-03-31T01:37:39;10.30;99.90
2851;DHT22;1433;49.976;8.342;2023-03-31T01:43:15;10.30;99.90
2851;DHT22;1433;49.976;8.342;2023-03-31T01:46:05;10.30;99.90
2851;DHT22;1433;49.976;8.342;2023-03-31T01:52:03;10.20;99.90
2851;DHT22;1433;49.976;8.342;2023-03-31T01:56:51;10.10;99.90
2851;DHT22;1433;49.976;8.342;2023-03-31T01:59:31;10.10;99.90
2851;DHT22;1433;49.976;8.342;2023-03-31T02:02:04;10.10;99.90
2851;DHT22;1433;49.976;8.342;2023-03-31T02:04:37;10.10;99.90
2851;DHT22;1433;49.976;8.342;2023-03-31T02:07:07;10.10;99.90
2851;DHT22;1433;49.976;8.342;2023-03-31T02:09:40;10.10;99.90
2851;DHT22;1433;49.976;8.342;2023-03-31T02:12:08;10.10;99.90
2851;DHT22;1433;49.976;8.342;2023-03-31T02:14:38;10.10;99.90
2851;DHT22;1433;49.976;8.342;2023-03-31T02:17:06;10.10;99.90
2851;DHT22;1433;49.976;8.342;2023-03-31T02:19:37;10.10;99.90
2851;DHT22;1433;49.976;8.342;2023-03-31T02:22:07;10.10;99.90
2851;DHT22;1433;49.976;8.342;2023-03-31T02:24:35;10.10;99.90
2851;DHT22;1433;49.976;8.342;2023-03-31T02:27:12;10.10;99.90
2851;DHT22;1433;49.976;8.342;2023-03-31T02:29:38;10.10;99.90
2851;DHT22;1433;49.976;8.342;2023-03-31T02:32:34;10.10;99.90
2851;DHT22;1433;49.976;8.342;2023-03-31T02:34:40;10.10;99.90
2851;DHT22;1433;49.976;8.342;2023-03-31T02:37:07;10.10;99.90
2851;DHT22;1433;49.976;8.342;2023-03-31T02:39:35;10.10;99.90
2851;DHT22;1433;49.976;8.342;2023-03-31T02:42:03;10.00;99.90
2851;DHT22;1433;49.976;8.342;2023-03-31T02:44:35;10.00;99.90
2851;DHT22;1433;49.976;8.342;2023-03-31T02:47:04;10.00;99.90
2851;DHT22;1433;49.976;8.342;2023-03-31T02:49:34;9.90;99.90
2851;DHT22;1433;49.976;8.342;2023-03-31T02:55:41;9.90;99.90
2851;DHT22;1433;49.976;8.342;2023-03-31T03:06:41;9.90;99.90
2851;DHT22;1433;49.976;8.342;2023-03-31T03:09:35;9.90;99.90
2851;DHT22;1433;49.976;8.342;2023-03-31T03:12:15;10.00;99.90
2851;DHT22;1433;49.976;8.342;2023-03-31T03:15:04;10.00;99.90
2851;DHT22;1433;49.976;8.342;2023-03-31T03:20:06;10.00;99.90
2851;DHT22;1433;49.976;8.342;2023-03-31T03:22:37;10.00;99.90
2851;DHT22;1433;49.976;8.342;2023-03-31T03:25:05;9.90;99.90
2851;DHT22;1433;49.976;8.342;2023-03-31T03:27:32;9.90;99.90
2851;DHT22;1433;49.976;8.342;2023-03-31T03:29:58;9.90;99.90
2851;DHT22;1433;49.976;8.342;2023-03-31T03:32:24;9.90;99.90
2851;DHT22;1433;49.976;8.342;2023-03-31T03:34:50;10.00;99.90
2851;DHT22;1433;49.976;8.342;2023-03-31T03:37:16;10.00;99.90
2851;DHT22;1433;49.976;8.342;2023-03-31T03:39:42;10.00;99.90
2851;DHT22;1433;49.976;8.342;2023-03-31T03:42:09;10.00;99.90
2851;DHT22;1433;49.976;8.342;2023-03-31T03:44:35;10.00;99.90
2851;DHT22;1433;49.976;8.342;2023-03-31T03:47:01;10.00;99.90
2851;DHT22;1433;49.976;8.342;2023-03-31T03:49:27;10.00;99.90
2851;DHT22;1433;49.976;8.342;2023-03-31T03:51:53;10.00;99.90
2851;DHT22;1433;49.976;8.342;2023-03-31T03:54:20;10.00;99.90
2851;DHT22;1433;49.976;8.342;2023-03-31T03:56:46;10.00;99.90
2851;DHT22;1433;49.976;8.342;2023-03-31T03:59:12;10.00;99.90
2851;DHT22;1433;49.976;8.342;2023-03-31T04:01:39;10.00;99.90
2851;DHT22;1433;49.976;8.342;2023-03-31T04:04:05;10.00;99.90
2851;DHT22;1433;49.976;8.342;2023-03-31T04:06:32;10.00;99.90
2851;DHT22;1433;49.976;8.342;2023-03-31T04:08:58;10.00;99.90
2851;DHT22;1433;49.976;8.342;2023-03-31T04:11:25;10.00;99.90
2851;DHT22;1433;49.976;8.342;2023-03-31T04:13:53;10.00;99.90
2851;DHT22;1433;49.976;8.342;2023-03-31T04:16:19;10.10;99.90
2851;DHT22;1433;49.976;8.342;2023-03-31T04:18:45;10.10;99.90
2851;DHT22;1433;49.976;8.342;2023-03-31T04:21:14;10.20;99.90
2851;DHT22;1433;49.976;8.342;2023-03-31T04:23:42;10.30;99.90
2851;DHT22;1433;49.976;8.342;2023-03-31T04:26:11;10.30;99.90
2851;DHT22;1433;49.976;8.342;2023-03-31T04:28:38;10.30;99.90
2851;DHT22;1433;49.976;8.342;2023-03-31T04:31:11;10.30;99.90
2851;DHT22;1433;49.976;8.342;2023-03-31T04:33:41;10.30;99.90
2851;DHT22;1433;49.976;8.342;2023-03-31T04:36:09;10.40;99.90
2851;DHT22;1433;49.976;8.342;2023-03-31T04:38:46;10.40;99.90
2851;DHT22;1433;49.976;8.342;2023-03-31T04:41:18;10.40;99.90
2851;DHT22;1433;49.976;8.342;2023-03-31T04:43:44;10.40;99.90
2851;DHT22;1433;49.976;8.342;2023-03-31T04:46:10;10.40;99.90
2851;DHT22;1433;49.976;8.342;2023-03-31T04:48:36;10.40;99.90
2851;DHT22;1433;49.976;8.342;2023-03-31T04:51:03;10.40;99.90
2851;DHT22;1433;49.976;8.342;2023-03-31T04:53:29;10.40;99.90
2851;DHT22;1433;49.976;8.342;2023-03-31T04:55:56;10.50;99.90
2851;DHT22;1433;49.976;8.342;2023-03-31T04:58:22;10.50;99.90
2851;DHT22;1433;49.976;8.342;2023-03-31T05:00:48;10.40;99.90
2851;DHT22;1433;49.976;8.342;2023-03-31T05:03:14;10.40;99.90
2851;DHT22;1433;49.976;8.342;2023-03-31T05:05:41;10.30;99.90
2851;DHT22;1433;49.976;8.342;2023-03-31T05:08:07;10.20;99.90
2851;DHT22;1433;49.976;8.342;2023-03-31T05:10:33;10.20;99.90
2851;DHT22;1433;49.976;8.342;2023-03-31T05:12:59;10.10;99.90
2851;DHT22;1433;49.976;8.342;2023-03-31T05:15:25;10.00;99.90
2851;DHT22;1433;49.976;8.342;2023-03-31T05:17:52;10.00;99.90
2851;DHT22;1433;49.976;8.342;2023-03-31T05:20:19;10.00;99.90
2851;DHT22;1433;49.976;8.342;2023-03-31T05:22:46;10.00;99.90
2851;DHT22;1433;49.976;8.342;2023-03-31T05:25:13;9.90;99.90
2851;DHT22;1433;49.976;8.342;2023-03-31T05:27:41;9.90;99.90
2851;DHT22;1433;49.976;8.342;2023-03-31T05:30:09;9.90;99.90
2851;DHT22;1433;49.976;8.342;2023-03-31T05:32:36;9.90;99.90
2851;DHT22;1433;49.976;8.342;2023-03-31T05:35:02;9.90;99.90
2851;DHT22;1433;49.976;8.342;2023-03-31T05:37:28;10.00;99.90
2851;DHT22;1433;49.976;8.342;2023-03-31T05:39:54;9.90;99.90
2851;DHT22;1433;49.976;8.342;2023-03-31T05:42:20;10.00;99.90
2851;DHT22;1433;49.976;8.342;2023-03-31T05:44:47;10.00;99.90
2851;DHT22;1433;49.976;8.342;2023-03-31T05:47:14;9.90;99.90
2851;DHT22;1433;49.976;8.342;2023-03-31T05:49:40;9.90;99.90
2851;DHT22;1433;49.976;8.342;2023-03-31T05:52:07;9.90;99.90
2851;DHT22;1433;49.976;8.342;2023-03-31T05:54:34;9.80;99.90
2851;DHT22;1433;49.976;8.342;2023-03-31T05:57:00;9.90;99.90
2851;DHT22;1433;49.976;8.342;2023-03-31T05:59:26;9.80;99.90
2851;DHT22;1433;49.976;8.342;2023-03-31T06:01:52;9.80;99.90
2851;DHT22;1433;49.976;8.342;2023-03-31T06:04:19;9.80;99.90
2851;DHT22;1433;49.976;8.342;2023-03-31T06:06:45;9.80;99.90
2851;DHT22;1433;49.976;8.342;2023-03-31T06:09:13;9.80;99.90
2851;DHT22;1433;49.976;8.342;2023-03-31T06:11:39;9.80;99.90
2851;DHT22;1433;49.976;8.342;2023-03-31T06:14:05;9.80;99.90
2851;DHT22;1433;49.976;8.342;2023-03-31T06:16:31;9.80;99.90
2851;DHT22;1433;49.976;8.342;2023-03-31T06:18:58;9.80;99.90
2851;DHT22;1433;49.976;8.342;2023-03-31T06:21:24;9.80;99.90
2851;DHT22;1433;49.976;8.342;2023-03-31T06:23:50;9.80;99.90
2851;DHT22;1433;49.976;8.342;2023-03-31T06:26:18;9.80;99.90
2851;DHT22;1433;49.976;8.342;2023-03-31T06:28:45;9.80;99.90
2851;DHT22;1433;49.976;8.342;2023-03-31T06:31:14;9.80;99.90
2851;DHT22;1433;49.976;8.342;2023-03-31T06:33:41;9.90;99.90
2851;DHT22;1433;49.976;8.342;2023-03-31T06:36:09;9.80;99.90
2851;DHT22;1433;49.976;8.342;2023-03-31T06:38:36;9.90;99.90
2851;DHT22;1433;49.976;8.342;2023-03-31T06:41:04;9.90;99.90
2851;DHT22;1433;49.976;8.342;2023-03-31T06:43:31;9.90;99.90
2851;DHT22;1433;49.976;8.342;2023-03-31T06:45:58;9.90;99.90
2851;DHT22;1433;49.976;8.342;2023-03-31T06:48:24;9.90;99.90
2851;DHT22;1433;49.976;8.342;2023-03-31T06:50:53;9.90;99.90
2851;DHT22;1433;49.976;8.342;2023-03-31T06:53:20;9.90;99.90
2851;DHT22;1433;49.976;8.342;2023-03-31T06:55:47;9.90;99.90
2851;DHT22;1433;49.976;8.342;2023-03-31T06:58:13;9.90;99.90
2851;DHT22;1433;49.976;8.342;2023-03-31T07:00:39;9.90;99.90
2851;DHT22;1433;49.976;8.342;2023-03-31T07:03:06;9.90;99.90
2851;DHT22;1433;49.976;8.342;2023-03-31T07:05:34;9.90;99.90
2851;DHT22;1433;49.976;8.342;2023-03-31T07:08:00;9.90;99.90
2851;DHT22;1433;49.976;8.342;2023-03-31T07:10:29;10.00;99.90
2851;DHT22;1433;49.976;8.342;2023-03-31T07:12:56;10.00;99.90
2851;DHT22;1433;49.976;8.342;2023-03-31T07:15:24;10.00;99.90
2851;DHT22;1433;49.976;8.342;2023-03-31T07:17:57;10.00;99.90
2851;DHT22;1433;49.976;8.342;2023-03-31T07:20:28;10.10;99.90
2851;DHT22;1433;49.976;8.342;2023-03-31T07:22:55;10.00;99.90
2851;DHT22;1433;49.976;8.342;2023-03-31T07:25:22;10.00;99.90
2851;DHT22;1433;49.976;8.342;2023-03-31T07:27:48;10.00;99.90
2851;DHT22;1433;49.976;8.342;2023-03-31T07:30:16;9.90;99.90
2851;DHT22;1433;49.976;8.342;2023-03-31T07:32:45;9.80;99.90
2851;DHT22;1433;49.976;8.342;2023-03-31T07:35:12;10.00;99.90
2851;DHT22;1433;49.976;8.342;2023-03-31T07:37:40;10.00;99.90
2851;DHT22;1433;49.976;8.342;2023-03-31T07:40:08;10.10;99.90
2851;DHT22;1433;49.976;8.342;2023-03-31T07:42:35;10.20;99.90
2851;DHT22;1433;49.976;8.342;2023-03-31T07:45:02;10.40;99.90
2851;DHT22;1433;49.976;8.342;2023-03-31T07:47:31;10.50;99.90
2851;DHT22;1433;49.976;8.342;2023-03-31T07:49:57;10.80;99.90
2851;DHT22;1433;49.976;8.342;2023-03-31T07:52:24;11.00;99.90
2851;DHT22;1433;49.976;8.342;2023-03-31T07:54:50;11.00;99.90
2851;DHT22;1433;49.976;8.342;2023-03-31T07:57:17;10.90;99.90
2851;DHT22;1433;49.976;8.342;2023-03-31T07:59:46;11.00;99.90
2851;DHT22;1433;49.976;8.342;2023-03-31T08:02:15;11.10;99.90
2851;DHT22;1433;49.976;8.342;2023-03-31T08:04:42;11.20;99.90
2851;DHT22;1433;49.976;8.342;2023-03-31T08:07:14;11.10;99.90
2851;DHT22;1433;49.976;8.342;2023-03-31T08:09:38;11.20;99.90
2851;DHT22;1433;49.976;8.342;2023-03-31T08:12:05;11.30;99.90
2851;DHT22;1433;49.976;8.342;2023-03-31T08:14:32;11.20;99.90
2851;DHT22;1433;49.976;8.342;2023-03-31T08:16:58;11.40;99.90
2851;DHT22;1433;49.976;8.342;2023-03-31T08:19:25;11.60;99.90
2851;DHT22;1433;49.976;8.342;2023-03-31T08:21:52;11.80;99.90
2851;DHT22;1433;49.976;8.342;2023-03-31T08:24:19;11.80;99.90
2851;DHT22;1433;49.976;8.342;2023-03-31T08:26:45;11.70;99.90
2851;DHT22;1433;49.976;8.342;2023-03-31T08:29:11;11.60;99.90
2851;DHT22;1433;49.976;8.342;2023-03-31T08:31:37;11.50;99.90
2851;DHT22;1433;49.976;8.342;2023-03-31T08:34:04;11.50;99.90
2851;DHT22;1433;49.976;8.342;2023-03-31T08:36:30;11.30;99.90
2851;DHT22;1433;49.976;8.342;2023-03-31T08:38:56;11.30;99.90
2851;DHT22;1433;49.976;8.342;2023-03-31T08:45:02;11.30;99.90
2851;DHT22;1433;49.976;8.342;2023-03-31T08:46:43;11.50;99.90
2851;DHT22;1433;49.976;8.342;2023-03-31T08:49:13;11.60;99.90
2851;DHT22;1433;49.976;8.342;2023-03-31T08:51:41;11.80;99.90
2851;DHT22;1433;49.976;8.342;2023-03-31T08:56:56;12.10;99.90
2851;DHT22;1433;49.976;8.342;2023-03-31T08:59:33;12.20;99.90
2851;DHT22;1433;49.976;8.342;2023-03-31T09:02:24;12.40;99.90
2851;DHT22;1433;49.976;8.342;2023-03-31T09:07:39;12.70;99.90
2851;DHT22;1433;49.976;8.342;2023-03-31T09:13:23;12.70;99.90
2851;DHT22;1433;49.976;8.342;2023-03-31T09:16:12;12.60;99.90
2851;DHT22;1433;49.976;8.342;2023-03-31T09:18:40;12.60;99.90
2851;DHT22;1433;49.976;8.342;2023-03-31T09:21:36;12.50;99.90
2851;DHT22;1433;49.976;8.342;2023-03-31T09:24:12;12.60;99.90
2851;DHT22;1433;49.976;8.342;2023-03-31T09:26:41;12.90;99.90
2851;DHT22;1433;49.976;8.342;2023-03-31T09:29:27;13.10;99.90
2851;DHT22;1433;49.976;8.342;2023-03-31T09:31:51;13.40;99.90
2851;DHT22;1433;49.976;8.342;2023-03-31T09:34:28;13.60;99.90
2851;DHT22;1433;49.976;8.342;2023-03-31T09:36:56;13.80;99.90
2851;DHT22;1433;49.976;8.342;2023-03-31T09:39:22;14.10;99.90
2851;DHT22;1433;49.976;8.342;2023-03-31T09:41:50;14.40;99.90
2851;DHT22;1433;49.976;8.342;2023-03-31T09:44:31;14.30;99.90
2851;DHT22;1433;49.976;8.342;2023-03-31T09:46:57;14.20;99.90
2851;DHT22;1433;49.976;8.342;2023-03-31T09:49:26;14.00;99.90
2851;DHT22;1433;49.976;8.342;2023-03-31T09:52:00;13.80;99.90
2851;DHT22;1433;49.976;8.342;2023-03-31T09:54:38;13.50;99.90
2851;DHT22;1433;49.976;8.342;2023-03-31T09:59:46;12.90;99.90
2851;DHT22;1433;49.976;8.342;2023-03-31T10:04:53;12.80;99.90
2851;DHT22;1433;49.976;8.342;2023-03-31T10:07:20;12.70;99.90
2851;DHT22;1433;49.976;8.342;2023-03-31T10:09:47;12.60;99.90
2851;DHT22;1433;49.976;8.342;2023-03-31T10:12:22;12.40;99.90
2851;DHT22;1433;49.976;8.342;2023-03-31T10:14:51;11.60;99.90
2851;DHT22;1433;49.976;8.342;2023-03-31T10:17:20;11.30;99.90
2851;DHT22;1433;49.976;8.342;2023-03-31T10:19:49;11.00;99.90
2851;DHT22;1433;49.976;8.342;2023-03-31T10:22:28;9.80;99.90
2851;DHT22;1433;49.976;8.342;2023-03-31T10:25:08;8.10;99.90
2851;DHT22;1433;49.976;8.342;2023-03-31T10:27:32;8.00;99.90
2851;DHT22;1433;49.976;8.342;2023-03-31T10:30:00;8.20;99.90
2851;DHT22;1433;49.976;8.342;2023-03-31T10:32:43;8.20;99.90
2851;DHT22;1433;49.976;8.342;2023-03-31T10:35:33;8.30;99.90
2851;DHT22;1433;49.976;8.342;2023-03-31T10:38:13;8.50;99.90
2851;DHT22;1433;49.976;8.342;2023-03-31T10:40:37;8.60;99.90
2851;DHT22;1433;49.976;8.342;2023-03-31T10:43:18;8.80;99.90
2851;DHT22;1433;49.976;8.342;2023-03-31T10:45:50;9.00;99.90
2851;DHT22;1433;49.976;8.342;2023-03-31T10:48:33;9.30;99.90
2851;DHT22;1433;49.976;8.342;2023-03-31T10:53:51;9.90;99.90
2851;DHT22;1433;49.976;8.342;2023-03-31T11:13:21;14.10;99.90
2851;DHT22;1433;49.976;8.342;2023-03-31T11:22:08;14.60;99.90
2851;DHT22;1433;49.976;8.342;2023-03-31T11:27:46;15.10;99.90
2851;DHT22;1433;49.976;8.342;2023-03-31T11:41:19;14.70;99.90
2851;DHT22;1433;49.976;8.342;2023-03-31T11:43:55;14.50;99.90
2851;DHT22;1433;49.976;8.342;2023-03-31T11:47:17;14.30;99.90
2851;DHT22;1433;49.976;8.342;2023-03-31T11:49:25;14.20;99.90
2851;DHT22;1433;49.976;8.342;2023-03-31T11:54:32;14.20;99.90
2851;DHT22;1433;49.976;8.342;2023-03-31T11:57:01;14.70;99.90
2851;DHT22;1433;49.976;8.342;2023-03-31T11:59:29;15.40;99.90
2851;DHT22;1433;49.976;8.342;2023-03-31T12:02:18;15.90;99.90
2851;DHT22;1433;49.976;8.342;2023-03-31T12:04:48;16.20;99.90
2851;DHT22;1433;49.976;8.342;2023-03-31T12:07:34;15.80;99.90
2851;DHT22;1433;49.976;8.342;2023-03-31T12:12:53;15.70;99.90
2851;DHT22;1433;49.976;8.342;2023-03-31T12:15:24;15.40;99.90
2851;DHT22;1433;49.976;8.342;2023-03-31T12:18:14;15.40;99.90
2851;DHT22;1433;49.976;8.342;2023-03-31T12:20:45;15.40;99.90
2851;DHT22;1433;49.976;8.342;2023-03-31T12:23:17;15.30;99.90
2851;DHT22;1433;49.976;8.342;2023-03-31T12:26:00;15.20;99.90
2851;DHT22;1433;49.976;8.342;2023-03-31T12:28:23;14.90;99.90
2851;DHT22;1433;49.976;8.342;2023-03-31T12:30:53;14.80;99.90
2851;DHT22;1433;49.976;8.342;2023-03-31T12:33:32;15.00;99.90
2851;DHT22;1433;49.976;8.342;2023-03-31T12:44:28;16.40;99.90
2851;DHT22;1433;49.976;8.342;2023-03-31T12:47:20;17.50;99.90
2851;DHT22;1433;49.976;8.342;2023-03-31T12:49:57;17.60;99.90
2851;DHT22;1433;49.976;8.342;2023-03-31T12:55:45;17.70;99.90
2851;DHT22;1433;49.976;8.342;2023-03-31T13:01:35;17.00;99.90
2851;DHT22;1433;49.976;8.342;2023-03-31T13:04:20;16.80;99.90
2851;DHT22;1433;49.976;8.342;2023-03-31T13:06:53;17.20;99.90
2851;DHT22;1433;49.976;8.342;2023-03-31T13:12:06;16.30;99.90
2851;DHT22;1433;49.976;8.342;2023-03-31T13:14:37;15.70;99.90
2851;DHT22;1433;49.976;8.342;2023-03-31T13:17:28;15.40;99.90
2851;DHT22;1433;49.976;8.342;2023-03-31T13:20:14;14.80;99.90
2851;DHT22;1433;49.976;8.342;2023-03-31T13:22:30;14.40;99.90
2851;DHT22;1433;49.976;8.342;2023-03-31T13:28:09;13.80;99.90
2851;DHT22;1433;49.976;8.342;2023-03-31T13:33:13;13.40;99.90
2851;DHT22;1433;49.976;8.342;2023-03-31T13:35:43;13.50;99.90
2851;DHT22;1433;49.976;8.342;2023-03-31T13:44:06;13.90;99.90
2851;DHT22;1433;49.976;8.342;2023-03-31T13:46:46;13.60;99.90
2851;DHT22;1433;49.976;8.342;2023-03-31T13:51:59;13.80;99.90
2851;DHT22;1433;49.976;8.342;2023-03-31T13:54:35;14.10;99.90
2851;DHT22;1433;49.976;8.342;2023-03-31T14:03:16;15.80;99.90
2851;DHT22;1433;49.976;8.342;2023-03-31T14:05:47;15.90;99.90
2851;DHT22;1433;49.976;8.342;2023-03-31T14:11:25;16.00;99.90
2851;DHT22;1433;49.976;8.342;2023-03-31T14:14:14;15.80;99.90
2851;DHT22;1433;49.976;8.342;2023-03-31T14:16:54;16.00;99.90
2851;DHT22;1433;49.976;8.342;2023-03-31T14:25:21;15.40;99.90
2851;DHT22;1433;49.976;8.342;2023-03-31T14:30:51;15.90;99.90
2851;DHT22;1433;49.976;8.342;2023-03-31T14:33:49;16.60;99.90
2851;DHT22;1433;49.976;8.342;2023-03-31T14:38:51;17.60;99.90
2851;DHT22;1433;49.976;8.342;2023-03-31T14:41:19;17.10;99.90
2851;DHT22;1433;49.976;8.342;2023-03-31T14:43:48;16.20;99.90
2851;DHT22;1433;49.976;8.342;2023-03-31T14:46:20;15.80;99.90
2851;DHT22;1433;49.976;8.342;2023-03-31T14:48:49;15.40;99.90
2851;DHT22;1433;49.976;8.342;2023-03-31T14:51:29;15.40;99.90
2851;DHT22;1433;49.976;8.342;2023-03-31T14:54:01;15.20;99.90
2851;DHT22;1433;49.976;8.342;2023-03-31T14:56:33;15.00;99.90
2851;DHT22;1433;49.976;8.342;2023-03-31T14:59:04;14.40;99.90
2851;DHT22;1433;49.976;8.342;2023-03-31T15:01:33;12.80;99.90
2851;DHT22;1433;49.976;8.342;2023-03-31T15:04:08;11.60;99.90
2851;DHT22;1433;49.976;8.342;2023-03-31T15:06:35;11.00;99.90
2851;DHT22;1433;49.976;8.342;2023-03-31T15:09:03;10.70;99.90
2851;DHT22;1433;49.976;8.342;2023-03-31T15:11:30;10.60;99.90
2851;DHT22;1433;49.976;8.342;2023-03-31T15:13:57;10.80;99.90
2851;DHT22;1433;49.976;8.342;2023-03-31T15:16:43;11.20;99.90
2851;DHT22;1433;49.976;8.342;2023-03-31T15:21:43;12.60;99.90
2851;DHT22;1433;49.976;8.342;2023-03-31T15:24:19;13.10;99.90
2851;DHT22;1433;49.976;8.342;2023-03-31T15:26:56;13.40;99.90
2851;DHT22;1433;49.976;8.342;2023-03-31T15:29:21;13.70;99.90
2851;DHT22;1433;49.976;8.342;2023-03-31T15:31:54;13.80;99.90
2851;DHT22;1433;49.976;8.342;2023-03-31T15:34:31;13.60;99.90
2851;DHT22;1433;49.976;8.342;2023-03-31T15:36:59;13.70;99.90
2851;DHT22;1433;49.976;8.342;2023-03-31T15:39:29;13.80;99.90
2851;DHT22;1433;49.976;8.342;2023-03-31T15:41:57;13.80;99.90
2851;DHT22;1433;49.976;8.342;2023-03-31T15:44:29;13.70;99.90
2851;DHT22;1433;49.976;8.342;2023-03-31T15:47:01;13.70;99.90
2851;DHT22;1433;49.976;8.342;2023-03-31T15:49:28;13.70;99.90
2851;DHT22;1433;49.976;8.342;2023-03-31T15:51:55;13.60;99.90
2851;DHT22;1433;49.976;8.342;2023-03-31T15:54:36;13.60;99.90
2851;DHT22;1433;49.976;8.342;2023-03-31T15:57:05;13.50;99.90
2851;DHT22;1433;49.976;8.342;2023-03-31T15:59:47;13.50;99.90
2851;DHT22;1433;49.976;8.342;2023-03-31T16:02:18;13.50;99.90
2851;DHT22;1433;49.976;8.342;2023-03-31T16:04:50;13.60;99.90
2851;DHT22;1433;49.976;8.342;2023-03-31T16:07:28;13.50;99.90
2851;DHT22;1433;49.976;8.342;2023-03-31T16:09:58;13.50;99.90
2851;DHT22;1433;49.976;8.342;2023-03-31T16:12:30;13.30;99.90
2851;DHT22;1433;49.976;8.342;2023-03-31T16:15:07;13.20;99.90
2851;DHT22;1433;49.976;8.342;2023-03-31T16:17:49;13.00;99.90
2851;DHT22;1433;49.976;8.342;2023-03-31T16:22:51;12.80;99.90
2851;DHT22;1433;49.976;8.342;2023-03-31T16:25:20;12.80;99.90
2851;DHT22;1433;49.976;8.342;2023-03-31T16:27:55;12.80;99.90
2851;DHT22;1433;49.976;8.342;2023-03-31T16:30:40;12.80;99.90
2851;DHT22;1433;49.976;8.342;2023-03-31T16:33:09;12.90;99.90
2851;DHT22;1433;49.976;8.342;2023-03-31T16:35:38;12.90;99.90
2851;DHT22;1433;49.976;8.342;2023-03-31T16:38:06;13.00;99.90
2851;DHT22;1433;49.976;8.342;2023-03-31T16:40:37;12.90;99.90
2851;DHT22;1433;49.976;8.342;2023-03-31T16:43:13;12.90;99.90
2851;DHT22;1433;49.976;8.342;2023-03-31T16:45:45;12.80;99.90
2851;DHT22;1433;49.976;8.342;2023-03-31T16:48:13;12.70;99.90
2851;DHT22;1433;49.976;8.342;2023-03-31T16:50:42;12.70;99.90
2851;DHT22;1433;49.976;8.342;2023-03-31T16:53:08;12.60;99.90
2851;DHT22;1433;49.976;8.342;2023-03-31T16:55:35;12.60;99.90
2851;DHT22;1433;49.976;8.342;2023-03-31T16:58:02;12.50;99.90
2851;DHT22;1433;49.976;8.342;2023-03-31T17:00:30;12.50;99.90
2851;DHT22;1433;49.976;8.342;2023-03-31T17:02:57;12.50;99.90
2851;DHT22;1433;49.976;8.342;2023-03-31T17:05:24;12.50;99.90
2851;DHT22;1433;49.976;8.342;2023-03-31T17:07:50;12.40;99.90
2851;DHT22;1433;49.976;8.342;2023-03-31T17:10:17;12.40;99.90
2851;DHT22;1433;49.976;8.342;2023-03-31T17:12:43;12.40;99.90
2851;DHT22;1433;49.976;8.342;2023-03-31T17:15:10;12.40;99.90
2851;DHT22;1433;49.976;8.342;2023-03-31T17:17:36;12.40;99.90
2851;DHT22;1433;49.976;8.342;2023-03-31T17:20:04;12.40;99.90
2851;DHT22;1433;49.976;8.342;2023-03-31T17:22:32;12.40;99.90
2851;DHT22;1433;49.976;8.342;2023-03-31T17:24:58;12.30;99.90
2851;DHT22;1433;49.976;8.342;2023-03-31T17:27:26;12.30;99.90
2851;DHT22;1433;49.976;8.342;2023-03-31T17:29:54;12.30;99.90
2851;DHT22;1433;49.976;8.342;2023-03-31T17:32:21;12.30;99.90
2851;DHT22;1433;49.976;8.342;2023-03-31T17:34:48;12.30;99.90
2851;DHT22;1433;49.976;8.342;2023-03-31T17:37:15;12.30;99.90
2851;DHT22;1433;49.976;8.342;2023-03-31T17:39:42;12.30;99.90
2851;DHT22;1433;49.976;8.342;2023-03-31T17:42:10;12.30;99.90
2851;DHT22;1433;49.976;8.342;2023-03-31T17:44:39;12.30;99.90
2851;DHT22;1433;49.976;8.342;2023-03-31T17:47:06;12.20;99.90
2851;DHT22;1433;49.976;8.342;2023-03-31T17:49:33;12.20;99.90
2851;DHT22;1433;49.976;8.342;2023-03-31T17:51:59;12.20;99.90
2851;DHT22;1433;49.976;8.342;2023-03-31T17:54:25;12.20;99.90
2851;DHT22;1433;49.976;8.342;2023-03-31T17:56:51;12.10;99.90
2851;DHT22;1433;49.976;8.342;2023-03-31T17:59:18;12.00;99.90
2851;DHT22;1433;49.976;8.342;2023-03-31T18:01:45;11.80;99.90
2851;DHT22;1433;49.976;8.342;2023-03-31T18:04:14;11.80;99.90
2851;DHT22;1433;49.976;8.342;2023-03-31T18:06:41;11.70;99.90
2851;DHT22;1433;49.976;8.342;2023-03-31T18:09:12;11.70;99.90
2851;DHT22;1433;49.976;8.342;2023-03-31T18:11:38;11.60;99.90
2851;DHT22;1433;49.976;8.342;2023-03-31T18:14:06;11.60;99.90
2851;DHT22;1433;49.976;8.342;2023-03-31T18:16:33;11.50;99.90
2851;DHT22;1433;49.976;8.342;2023-03-31T18:19:00;11.50;99.90
2851;DHT22;1433;49.976;8.342;2023-03-31T18:21:26;11.40;99.90
2851;DHT22;1433;49.976;8.342;2023-03-31T18:23:53;11.40;99.90
2851;DHT22;1433;49.976;8.342;2023-03-31T18:26:21;11.30;99.90
2851;DHT22;1433;49.976;8.342;2023-03-31T18:28:49;11.30;99.90
2851;DHT22;1433;49.976;8.342;2023-03-31T18:31:16;11.20;99.90
2851;DHT22;1433;49.976;8.342;2023-03-31T18:33:42;11.20;99.90
2851;DHT22;1433;49.976;8.342;2023-03-31T18:36:13;11.20;99.90
2851;DHT22;1433;49.976;8.342;2023-03-31T18:38:38;11.10;99.90
2851;DHT22;1433;49.976;8.342;2023-03-31T18:41:04;11.10;99.90
2851;DHT22;1433;49.976;8.342;2023-03-31T18:43:32;11.10;99.90
2851;DHT22;1433;49.976;8.342;2023-03-31T18:45:59;11.10;99.90
2851;DHT22;1433;49.976;8.342;2023-03-31T18:48:26;11.00;99.90
2851;DHT22;1433;49.976;8.342;2023-03-31T18:50:53;11.00;99.90
2851;DHT22;1433;49.976;8.342;2023-03-31T18:53:20;11.00;99.90
2851;DHT22;1433;49.976;8.342;2023-03-31T18:55:48;11.10;99.90
2851;DHT22;1433;49.976;8.342;2023-03-31T18:58:15;11.10;99.90
2851;DHT22;1433;49.976;8.342;2023-03-31T19:00:41;11.10;99.90
2851;DHT22;1433;49.976;8.342;2023-03-31T19:03:07;11.00;99.90